Time;durP1;ratioP1;P1;durP2;ratioP2;P2;SDS_P1;SDS_P2;PMS_P1;PMS_P2;Temp;Humidity;BMP_temperature;BMP_pressure;BME280_temperature;BME280_humidity;BME280_pressure;Samples;Min_cycle;Max_cycle;Signal;HPM_P1;HPM_P2
2022/03/06 00:01:41;;;;;;;;;;;;;;;11.27;28.24;99490.53;4498261;31;34075;-84
2022/03/06 00:04:08;;;;;;;;;;;;;;;11.12;28.53;99490.31;4498037;31;33872;-84
2022/03/06 00:06:37;;;;;;;;;;;;;;;11.24;28.04;99484.44;4497535;31;33431;-83
2022/03/06 00:09:05;;;;;;;;;;;;;;;11.14;28.09;99484.31;4496951;31;35020;-83
2022/03/06 00:11:32;;;;;;;;;;;;;;;11.02;28.61;99496.19;4498208;31;34527;-83
2022/03/06 00:13:59;;;;;;;;;;;;;;;11.15;28.72;99501.59;4497774;31;34293;-83
2022/03/06 00:16:27;;;;;;;;;;;;;;;10.97;28.59;99503.91;4498356;31;33223;-83
2022/03/06 00:18:55;;;;;;;;;;;;;;;10.82;28.89;99501.91;4497942;31;34571;-83
2022/03/06 00:21:25;;;;;;;;;;;;;;;10.93;28.67;99504.69;4497208;31;34007;-84
2022/03/06 00:23:53;;;;;;;;;;;;;;;10.98;28.40;99507.38;4497423;31;34077;-84
2022/03/06 00:26:21;;;;;;;;;;;;;;;10.62;28.37;99499.00;4488363;31;33100;-84
2022/03/06 00:28:48;;;;;;;;;;;;;;;10.89;28.58;99503.78;4496803;31;33844;-83
2022/03/06 00:31:15;;;;;;;;;;;;;;;10.94;28.43;99499.53;4498251;31;34272;-84
2022/03/06 00:33:43;;;;;;;;;;;;;;;10.80;28.22;99490.66;4499959;31;33439;-83
2022/03/06 00:36:11;;;;;;;;;;;;;;;10.61;28.71;99497.25;4500165;31;33447;-83
2022/03/06 00:38:39;;;;;;;;;;;;;;;10.56;28.87;99496.28;4499196;31;33948;-83
2022/03/06 00:41:06;;;;;;;;;;;;;;;10.32;29.33;99494.12;4497718;31;34696;-83
2022/03/06 00:43:34;;;;;;;;;;;;;;;10.25;28.92;99502.59;4499935;31;34152;-83
2022/03/06 00:46:01;;;;;;;;;;;;;;;9.77;29.50;99503.31;4499798;31;34174;-83
2022/03/06 00:48:30;;;;;;;;;;;;;;;9.12;29.96;99503.59;4500067;31;33762;-83
2022/03/06 00:50:58;;;;;;;;;;;;;;;8.17;31.26;99498.53;4499657;31;34322;-83
2022/03/06 00:53:25;;;;;;;;;;;;;;;8.50;31.18;99505.47;4498662;31;33993;-82
2022/03/06 00:55:52;;;;;;;;;;;;;;;8.61;31.02;99509.22;4499927;31;33302;-83
2022/03/06 00:58:19;;;;;;;;;;;;;;;8.61;31.06;99500.59;4500028;31;33812;-83
2022/03/06 01:00:47;;;;;;;;;;;;;;;8.75;30.44;99510.47;4499594;31;35044;-83
2022/03/06 01:03:16;;;;;;;;;;;;;;;8.62;31.07;99510.09;4499501;31;34360;-84
2022/03/06 01:05:44;;;;;;;;;;;;;;;7.71;31.84;99502.38;4499589;31;33520;-83
2022/03/06 01:08:11;;;;;;;;;;;;;;;8.78;30.42;99499.28;4499612;31;33925;-85
2022/03/06 01:10:39;;;;;;;;;;;;;;;9.09;30.17;99500.94;4498253;31;35075;-83
2022/03/06 01:13:07;;;;;;;;;;;;;;;8.04;31.59;99493.88;4499805;31;34127;-82
2022/03/06 01:15:34;;;;;;;;;;;;;;;8.95;30.32;99492.84;4498390;31;33295;-83
2022/03/06 01:18:03;;;;;;;;;;;;;;;9.16;30.02;99499.34;4496167;31;33249;-82
2022/03/06 01:20:30;;;;;;;;;;;;;;;9.66;29.72;99490.16;4497045;31;34395;-84
2022/03/06 01:22:57;;;;;;;;;;;;;;;10.01;29.64;99486.56;4499600;31;34549;-82
2022/03/06 01:25:25;;;;;;;;;;;;;;;10.19;29.21;99476.53;4499572;31;33317;-82
2022/03/06 01:27:52;;;;;;;;;;;;;;;10.45;29.18;99479.66;4499273;31;35048;-82
2022/03/06 01:30:21;;;;;;;;;;;;;;;10.74;28.69;99477.59;4499519;31;34063;-82
2022/03/06 01:32:49;;;;;;;;;;;;;;;10.39;28.88;99474.38;4499365;31;34734;-82
2022/03/06 01:35:16;;;;;;;;;;;;;;;10.41;29.24;99470.06;4489780;31;33596;-82
2022/03/06 01:37:45;;;;;;;;;;;;;;;10.24;29.39;99472.34;4485130;31;34209;-83
2022/03/06 01:40:13;;;;;;;;;;;;;;;10.43;28.72;99463.22;4485132;31;33748;-82
2022/03/06 01:42:41;;;;;;;;;;;;;;;10.19;29.08;99456.72;4486730;31;33662;-82
2022/03/06 01:45:10;;;;;;;;;;;;;;;9.97;29.35;99454.56;4499293;31;32940;-82
2022/03/06 01:47:47;;;;;;;;;;;;;;;10.13;29.55;99456.59;4499003;31;34151;-82
2022/03/06 01:50:18;;;;;;;;;;;;;;;10.31;29.17;99450.91;4499592;31;35224;-82
2022/03/06 01:52:47;;;;;;;;;;;;;;;10.36;28.98;99449.25;4499516;31;33289;-82
2022/03/06 01:55:14;;;;;;;;;;;;;;;10.14;29.33;99445.37;4498184;31;33281;-83
2022/03/06 01:57:42;;;;;;;;;;;;;;;10.32;29.39;99454.38;4499323;31;34228;-82
2022/03/06 02:00:12;;;;;;;;;;;;;;;10.62;28.93;99439.34;4496051;31;33954;-83
2022/03/06 02:02:39;;;;;;;;;;;;;;;10.07;29.29;99440.91;4493423;31;34242;-82
2022/03/06 02:05:07;;;;;;;;;;;;;;;10.26;29.08;99441.28;4487609;31;33094;-83
2022/03/06 02:07:34;;;;;;;;;;;;;;;10.05;29.43;99436.56;4499373;31;35033;-82
2022/03/06 02:10:03;;;;;;;;;;;;;;;9.91;29.52;99438.88;4485705;31;33927;-82
2022/03/06 02:12:30;;;;;;;;;;;;;;;9.72;30.14;99445.41;4499518;31;34141;-83
2022/03/06 02:14:58;;;;;;;;;;;;;;;9.78;30.11;99442.06;4485108;31;34227;-82
2022/03/06 02:17:26;;;;;;;;;;;;;;;9.87;29.95;99442.25;4499352;31;34168;-83
2022/03/06 02:19:53;;;;;;;;;;;;;;;9.67;30.00;99440.12;4498713;31;34074;-84
2022/03/06 02:22:24;;;;;;;;;;;;;;;9.56;30.53;99439.03;4499121;31;34521;-82
2022/03/06 02:24:52;;;;;;;;;;;;;;;9.55;30.40;99439.88;4499473;31;34270;-84
2022/03/06 02:27:19;;;;;;;;;;;;;;;9.38;30.70;99439.50;4497863;31;34924;-83
2022/03/06 02:29:47;;;;;;;;;;;;;;;9.56;30.18;99441.62;4499214;31;34375;-83
2022/03/06 02:32:15;;;;;;;;;;;;;;;9.42;30.64;99436.13;4499158;31;34195;-81
2022/03/06 02:34:44;;;;;;;;;;;;;;;9.61;30.39;99444.31;4484949;31;33320;-82
2022/03/06 02:37:11;;;;;;;;;;;;;;;9.68;30.26;99451.34;4484856;31;34199;-83
2022/03/06 02:39:39;;;;;;;;;;;;;;;9.81;30.06;99439.53;4498612;31;35131;-82
2022/03/06 02:42:06;;;;;;;;;;;;;;;9.91;29.76;99438.88;4499045;31;33750;-82
2022/03/06 02:44:33;;;;;;;;;;;;;;;9.87;29.71;99439.66;4493925;31;33378;-82
2022/03/06 02:47:00;;;;;;;;;;;;;;;9.81;29.43;99439.53;4498683;31;33943;-82
2022/03/06 02:49:27;;;;;;;;;;;;;;;9.67;30.04;99434.97;4498389;31;34145;-82
2022/03/06 02:51:55;;;;;;;;;;;;;;;9.88;29.74;99436.22;4499201;31;34718;-82
2022/03/06 02:54:22;;;;;;;;;;;;;;;9.76;29.69;99434.25;4498361;31;33382;-82
2022/03/06 02:56:49;;;;;;;;;;;;;;;9.73;30.05;99432.47;4498700;31;34155;-83
2022/03/06 02:59:17;;;;;;;;;;;;;;;9.77;29.83;99437.72;4498166;31;33561;-83
2022/03/06 03:01:44;;;;;;;;;;;;;;;9.71;30.03;99436.75;4498539;31;34176;-83
2022/03/06 03:04:12;;;;;;;;;;;;;;;9.73;29.95;99429.00;4498758;31;34087;-83
2022/03/06 03:06:40;;;;;;;;;;;;;;;9.88;29.26;99425.84;4497406;31;34442;-85
2022/03/06 03:09:08;;;;;;;;;;;;;;;9.55;29.74;99424.34;4498197;31;35359;-83
2022/03/06 03:11:35;;;;;;;;;;;;;;;9.39;30.20;99428.31;4487596;31;33793;-83
2022/03/06 03:14:02;;;;;;;;;;;;;;;9.63;30.15;99430.56;4499153;31;32945;-83
2022/03/06 03:16:30;;;;;;;;;;;;;;;9.52;30.11;99431.19;4497734;31;33382;-83
2022/03/06 03:18:57;;;;;;;;;;;;;;;9.64;29.71;99434.03;4497479;31;34055;-83
2022/03/06 03:21:24;;;;;;;;;;;;;;;9.45;30.04;99430.16;4499050;31;34213;-82
2022/03/06 03:23:52;;;;;;;;;;;;;;;9.40;30.02;99431.78;4498692;31;32982;-83
2022/03/06 03:26:19;;;;;;;;;;;;;;;9.66;29.81;99438.41;4498561;31;33754;-83
2022/03/06 03:28:46;;;;;;;;;;;;;;;9.78;29.52;99434.31;4499003;31;35022;-83
2022/03/06 03:31:13;;;;;;;;;;;;;;;9.61;29.72;99436.53;4498804;31;34672;-83
2022/03/06 03:33:40;;;;;;;;;;;;;;;9.45;29.99;99435.34;4498621;31;34161;-82
2022/03/06 03:36:07;;;;;;;;;;;;;;;9.04;30.73;99450.81;4498313;31;34991;-82
2022/03/06 03:38:35;;;;;;;;;;;;;;;9.00;30.75;99443.81;4489117;31;34231;-83
2022/03/06 03:41:03;;;;;;;;;;;;;;;9.19;30.66;99450.28;4498516;31;33711;-82
2022/03/06 03:43:30;;;;;;;;;;;;;;;8.97;30.94;99448.91;4498258;31;34006;-83
2022/03/06 03:45:58;;;;;;;;;;;;;;;8.96;30.94;99447.16;4497242;31;33771;-82
2022/03/06 03:48:26;;;;;;;;;;;;;;;8.72;31.25;99456.09;4498388;31;34001;-82
2022/03/06 03:50:53;;;;;;;;;;;;;;;8.89;31.20;99460.78;4497091;31;33946;-82
2022/03/06 03:53:21;;;;;;;;;;;;;;;8.89;30.92;99460.78;4497615;31;34022;-83
2022/03/06 03:55:49;;;;;;;;;;;;;;;9.07;30.86;99465.53;4498262;31;33753;-82
2022/03/06 03:58:16;;;;;;;;;;;;;;;9.19;30.49;99458.03;4496090;31;34439;-82
2022/03/06 04:00:45;;;;;;;;;;;;;;;8.88;30.71;99464.22;4497046;31;34100;-84
2022/03/06 04:03:13;;;;;;;;;;;;;;;9.02;30.86;99465.44;4497969;31;34238;-83
2022/03/06 04:05:40;;;;;;;;;;;;;;;9.04;30.70;99466.31;4482309;32;33634;-83
2022/03/06 04:08:07;;;;;;;;;;;;;;;8.95;30.96;99466.13;4488714;31;34209;-83
2022/03/06 04:10:34;;;;;;;;;;;;;;;9.02;30.92;99463.72;4500586;31;34548;-83
2022/03/06 04:13:02;;;;;;;;;;;;;;;9.14;30.84;99470.88;4500215;31;33311;-83
2022/03/06 04:15:29;;;;;;;;;;;;;;;9.08;30.74;99470.72;4486704;31;33982;-84
2022/03/06 04:17:56;;;;;;;;;;;;;;;8.80;30.79;99470.91;4500430;31;35264;-83
2022/03/06 04:20:24;;;;;;;;;;;;;;;8.96;30.67;99467.84;4500097;31;34907;-83
2022/03/06 04:22:51;;;;;;;;;;;;;;;8.69;30.78;99468.94;4499540;31;34041;-82
2022/03/06 04:25:18;;;;;;;;;;;;;;;8.49;30.94;99468.44;4499700;31;33833;-83
2022/03/06 04:27:46;;;;;;;;;;;;;;;8.40;31.52;99469.88;4500296;31;34485;-83
2022/03/06 04:30:13;;;;;;;;;;;;;;;7.87;32.51;99464.09;4500202;31;35066;-83
2022/03/06 04:32:40;;;;;;;;;;;;;;;7.42;33.02;99473.13;4499727;31;33736;-83
2022/03/06 04:35:07;;;;;;;;;;;;;;;8.14;32.26;99470.03;4485641;31;33820;-83
2022/03/06 04:37:35;;;;;;;;;;;;;;;8.24;32.11;99471.16;4499594;31;33729;-83
2022/03/06 04:40:02;;;;;;;;;;;;;;;8.50;31.65;99479.62;4499973;31;34312;-83
2022/03/06 04:42:29;;;;;;;;;;;;;;;8.82;30.97;99477.84;4500062;31;33664;-83
2022/03/06 04:44:57;;;;;;;;;;;;;;;8.53;31.50;99474.56;4499857;31;34096;-83
2022/03/06 04:47:24;;;;;;;;;;;;;;;8.42;32.04;99476.00;4499931;31;33960;-83
2022/03/06 04:49:51;;;;;;;;;;;;;;;8.51;31.74;99474.50;4499969;31;34769;-83
2022/03/06 04:52:18;;;;;;;;;;;;;;;8.71;31.34;99475.03;4499313;31;33428;-83
2022/03/06 04:54:46;;;;;;;;;;;;;;;8.36;31.77;99468.03;4499609;31;34731;-83
2022/03/06 04:57:14;;;;;;;;;;;;;;;8.60;31.39;99479.06;4500243;31;35210;-83
2022/03/06 04:59:41;;;;;;;;;;;;;;;8.61;31.43;99478.22;4499903;31;34934;-83
2022/03/06 05:02:08;;;;;;;;;;;;;;;8.61;31.17;99474.75;4499413;31;33230;-83
2022/03/06 05:04:36;;;;;;;;;;;;;;;8.46;31.38;99475.22;4498928;31;34967;-82
2022/03/06 05:07:03;;;;;;;;;;;;;;;8.12;31.87;99471.72;4500141;31;35224;-82
2022/03/06 05:09:30;;;;;;;;;;;;;;;7.62;32.64;99481.47;4499906;31;33505;-83
2022/03/06 05:11:57;;;;;;;;;;;;;;;7.38;32.97;99486.75;4499699;31;33065;-82
2022/03/06 05:14:24;;;;;;;;;;;;;;;7.22;33.20;99485.41;4499872;31;33658;-82
2022/03/06 05:16:52;;;;;;;;;;;;;;;7.91;32.17;99478.84;4485236;31;33531;-83
2022/03/06 05:19:19;;;;;;;;;;;;;;;8.29;31.54;99478.19;4499774;31;33761;-82
2022/03/06 05:21:46;;;;;;;;;;;;;;;8.48;31.38;99483.88;4500061;31;32981;-82
2022/03/06 05:24:13;;;;;;;;;;;;;;;7.98;32.05;99483.34;4499984;31;34014;-82
2022/03/06 05:26:41;;;;;;;;;;;;;;;8.04;32.05;99486.12;4499792;31;34472;-82
2022/03/06 05:29:08;;;;;;;;;;;;;;;8.26;31.69;99482.44;4499874;31;33678;-82
2022/03/06 05:31:35;;;;;;;;;;;;;;;8.27;31.72;99490.19;4498852;31;32725;-82
2022/03/06 05:34:02;;;;;;;;;;;;;;;8.24;32.04;99484.94;4499439;31;34939;-82
2022/03/06 05:36:30;;;;;;;;;;;;;;;8.42;31.68;99483.75;4499652;31;34185;-82
2022/03/06 05:38:57;;;;;;;;;;;;;;;7.51;32.97;99493.19;4499187;31;35609;-83
2022/03/06 05:41:24;;;;;;;;;;;;;;;8.26;32.17;99485.00;4499389;31;34489;-82
2022/03/06 05:43:51;;;;;;;;;;;;;;;8.31;32.01;99482.53;4490563;31;34241;-82
2022/03/06 05:46:19;;;;;;;;;;;;;;;8.66;31.44;99489.53;4499236;31;34741;-82
2022/03/06 05:48:46;;;;;;;;;;;;;;;8.45;31.58;99491.56;4499541;31;34145;-82
2022/03/06 05:51:13;;;;;;;;;;;;;;;8.51;31.51;99489.13;4496903;31;33952;-82
2022/03/06 05:53:40;;;;;;;;;;;;;;;8.60;31.23;99493.66;4498706;31;33807;-82
2022/03/06 05:56:08;;;;;;;;;;;;;;;8.64;31.51;99491.22;4499561;31;34300;-83
2022/03/06 05:58:35;;;;;;;;;;;;;;;7.95;32.98;99488.44;4499617;31;34861;-83
2022/03/06 06:01:02;;;;;;;;;;;;;;;7.86;33.31;99491.63;4499055;31;33407;-83
2022/03/06 06:03:30;;;;;;;;;;;;;;;8.25;32.66;99494.44;4499324;31;35066;-82
2022/03/06 06:05:57;;;;;;;;;;;;;;;7.24;34.11;99494.09;4499624;31;34864;-83
2022/03/06 06:08:25;;;;;;;;;;;;;;;6.87;34.10;99486.88;4499018;31;34734;-82
2022/03/06 06:10:52;;;;;;;;;;;;;;;7.39;33.29;99477.34;4499096;31;33210;-82
2022/03/06 06:13:19;;;;;;;;;;;;;;;6.63;34.54;99483.47;4499709;31;34047;-82
2022/03/06 06:15:46;;;;;;;;;;;;;;;7.09;33.88;99478.13;4499082;31;34800;-82
2022/03/06 06:18:14;;;;;;;;;;;;;;;7.62;32.94;99470.28;4499180;31;34491;-83
2022/03/06 06:20:41;;;;;;;;;;;;;;;6.87;34.02;99473.13;4498839;31;33116;-83
2022/03/06 06:23:08;;;;;;;;;;;;;;;5.68;36.05;99473.25;4485921;31;33820;-84
2022/03/06 06:25:35;;;;;;;;;;;;;;;4.11;39.41;99476.41;4499275;31;34010;-83
2022/03/06 06:28:03;;;;;;;;;;;;;;;5.04;37.76;99471.69;4498624;31;33668;-83
2022/03/06 06:30:30;;;;;;;;;;;;;;;5.55;36.81;99487.38;4498603;31;33100;-83
2022/03/06 06:32:57;;;;;;;;;;;;;;;5.61;36.68;99484.16;4499239;31;34005;-83
2022/03/06 06:35:24;;;;;;;;;;;;;;;5.48;37.11;99489.66;4499291;31;35128;-83
2022/03/06 06:37:51;;;;;;;;;;;;;;;5.88;36.51;99486.00;4498872;31;35049;-84
2022/03/06 06:40:19;;;;;;;;;;;;;;;6.36;35.40;99478.28;4498729;31;31881;-84
2022/03/06 06:42:46;;;;;;;;;;;;;;;6.64;34.53;99482.69;4499073;31;34307;-83
2022/03/06 06:45:14;;;;;;;;;;;;;;;5.66;37.06;99497.19;4499304;31;34425;-83
2022/03/06 06:47:41;;;;;;;;;;;;;;;6.31;36.00;99481.56;4499196;31;34437;-85
2022/03/06 06:50:08;;;;;;;;;;;;;;;6.43;35.50;99483.69;4498571;31;34382;-83
2022/03/06 06:52:36;;;;;;;;;;;;;;;6.37;35.75;99480.94;4498632;31;34874;-83
2022/03/06 06:55:04;;;;;;;;;;;;;;;6.65;35.99;99493.03;4499141;31;35224;-83
2022/03/06 06:57:32;;;;;;;;;;;;;;;7.48;34.20;99488.78;4497080;31;34588;-84
2022/03/06 07:00:00;;;;;;;;;;;;;;;7.48;33.88;99491.37;4498622;31;34084;-83
2022/03/06 07:02:27;;;;;;;;;;;;;;;6.51;35.49;99484.81;4499091;31;34182;-83
2022/03/06 07:04:59;;;;;;;;;;;;;;;6.33;36.03;99495.38;4498460;31;34100;-83
2022/03/06 07:07:27;;;;;;;;;;;;;;;5.74;36.64;99501.78;4498824;31;34771;-84
2022/03/06 07:09:54;;;;;;;;;;;;;;;5.46;37.41;99499.00;4498623;31;33397;-82
2022/03/06 07:12:21;;;;;;;;;;;;;;;6.12;36.17;99502.34;4498946;31;33815;-82
2022/03/06 07:14:49;;;;;;;;;;;;;;;7.31;34.16;99500.28;4498795;31;33855;-82
2022/03/06 07:17:16;;;;;;;;;;;;;;;7.22;34.36;99495.72;4498940;31;33853;-82
2022/03/06 07:19:44;;;;;;;;;;;;;;;7.05;34.05;99496.91;4498185;31;32979;-82
2022/03/06 07:22:12;;;;;;;;;;;;;;;7.10;33.78;99500.50;4499021;31;34169;-82
2022/03/06 07:24:39;;;;;;;;;;;;;;;7.43;33.20;99504.97;4498111;31;33795;-83
2022/03/06 07:27:06;;;;;;;;;;;;;;;7.86;32.85;99491.63;4498703;31;33997;-83
2022/03/06 07:29:33;;;;;;;;;;;;;;;7.51;32.95;99494.06;4498850;31;33959;-83
2022/03/06 07:32:00;;;;;;;;;;;;;;;7.93;32.49;99487.53;4498883;31;34778;-83
2022/03/06 07:34:28;;;;;;;;;;;;;;;8.38;31.96;99493.13;4498710;31;34759;-83
2022/03/06 07:36:55;;;;;;;;;;;;;;;8.53;31.60;99487.47;4497595;31;34423;-83
2022/03/06 07:39:22;;;;;;;;;;;;;;;8.27;31.36;99490.19;4498501;31;33071;-83
2022/03/06 07:41:49;;;;;;;;;;;;;;;8.21;31.98;99491.75;4497282;31;33588;-82
2022/03/06 07:44:17;;;;;;;;;;;;;;;8.01;31.67;99486.03;4498127;31;32691;-84
2022/03/06 07:46:45;;;;;;;;;;;;;;;8.88;30.79;99485.78;4498466;31;34105;-83
2022/03/06 07:49:12;;;;;;;;;;;;;;;9.04;30.53;99481.84;4498277;31;33426;-83
2022/03/06 07:51:39;;;;;;;;;;;;;;;8.24;31.37;99476.34;4498179;31;34170;-82
2022/03/06 07:54:12;;;;;;;;;;;;;;;8.76;30.97;99481.19;4498650;31;34269;-83
2022/03/06 07:56:40;;;;;;;;;;;;;;;9.20;30.42;99478.75;4497848;31;35005;-82
2022/03/06 07:59:08;;;;;;;;;;;;;;;8.96;30.27;99473.03;4498159;31;33047;-83
2022/03/06 08:01:36;;;;;;;;;;;;;;;9.22;29.49;99471.94;4498299;31;34949;-84
2022/03/06 08:04:04;;;;;;;;;;;;;;;9.41;29.63;99469.75;4498187;31;34403;-84
2022/03/06 08:06:31;;;;;;;;;;;;;;;9.08;29.97;99478.47;4497643;31;34419;-83
2022/03/06 08:08:58;;;;;;;;;;;;;;;9.52;29.44;99476.06;4497768;31;33698;-81
2022/03/06 08:11:28;;;;;;;;;;;;;;;9.57;29.16;99474.41;4497838;31;33920;-83
2022/03/06 08:13:55;;;;;;;;;;;;;;;9.26;29.59;99478.91;4495994;31;35115;-82
2022/03/06 08:16:22;;;;;;;;;;;;;;;9.12;29.52;99476.84;4497904;31;34921;-82
2022/03/06 08:18:49;;;;;;;;;;;;;;;8.40;30.89;99475.06;4497263;31;34080;-83
2022/03/06 08:21:17;;;;;;;;;;;;;;;7.82;32.23;99478.59;4497786;31;33872;-85
2022/03/06 08:23:44;;;;;;;;;;;;;;;8.02;32.10;99478.31;4496770;31;32942;-84
2022/03/06 08:26:11;;;;;;;;;;;;;;;8.87;30.48;99484.03;4497478;31;33418;-82
2022/03/06 08:28:38;;;;;;;;;;;;;;;8.94;30.11;99474.69;4497644;31;33390;-83
2022/03/06 08:31:05;;;;;;;;;;;;;;;8.96;30.29;99462.69;4497672;31;34970;-83
2022/03/06 08:33:33;;;;;;;;;;;;;;;9.68;29.16;99462.59;4496635;31;34432;-82
2022/03/06 08:36:00;;;;;;;;;;;;;;;10.42;28.50;99459.75;4496240;31;32566;-83
2022/03/06 08:38:27;;;;;;;;;;;;;;;10.07;28.12;99451.28;4495745;31;32873;-82
2022/03/06 08:40:55;;;;;;;;;;;;;;;9.61;29.05;99447.75;4490790;31;34653;-82
2022/03/06 08:43:22;;;;;;;;;;;;;;;8.97;29.95;99456.66;4497696;31;34838;-82
2022/03/06 08:45:49;;;;;;;;;;;;;;;9.08;28.81;99457.78;4497054;31;34474;-81
2022/03/06 08:48:16;;;;;;;;;;;;;;;9.12;29.03;99459.63;4496914;31;34171;-81
2022/03/06 08:50:44;;;;;;;;;;;;;;;8.92;29.87;99458.28;4496257;31;34869;-79
2022/03/06 08:53:12;;;;;;;;;;;;;;;9.15;28.77;99457.09;4497901;31;35289;-80
2022/03/06 08:55:41;;;;;;;;;;;;;;;8.77;29.64;99454.47;4497879;31;32881;-80
2022/03/06 08:58:08;;;;;;;;;;;;;;;8.90;29.79;99458.25;4498949;31;34353;-81
2022/03/06 09:00:35;;;;;;;;;;;;;;;9.13;28.51;99457.91;4498223;31;34841;-80
2022/03/06 09:03:02;;;;;;;;;;;;;;;9.64;28.07;99450.41;4497071;31;34542;-83
2022/03/06 09:05:30;;;;;;;;;;;;;;;9.37;29.10;99450.72;4497700;31;33786;-81
2022/03/06 09:08:00;;;;;;;;;;;;;;;10.16;27.58;99450.59;4496735;31;33083;-80
2022/03/06 09:10:27;;;;;;;;;;;;;;;9.64;27.52;99450.41;4493953;31;34483;-80
2022/03/06 09:12:56;;;;;;;;;;;;;;;10.53;26.96;99444.41;4489228;31;34094;-80
2022/03/06 09:15:23;;;;;;;;;;;;;;;10.06;27.29;99446.94;4496244;31;33995;-82
2022/03/06 09:17:52;;;;;;;;;;;;;;;10.07;27.11;99446.09;4498950;31;33046;-82
2022/03/06 09:20:20;;;;;;;;;;;;;;;10.70;26.86;99445.53;4496944;31;33773;-83
2022/03/06 09:22:47;;;;;;;;;;;;;;;9.25;27.70;99453.91;4498526;31;33061;-82
2022/03/06 09:25:15;;;;;;;;;;;;;;;9.85;27.60;99451.69;4498969;31;34999;-82
2022/03/06 09:27:42;;;;;;;;;;;;;;;10.03;27.48;99438.25;4498087;31;33604;-81
2022/03/06 09:30:10;;;;;;;;;;;;;;;9.85;28.04;99443.91;4498600;31;35115;-81
2022/03/06 09:32:37;;;;;;;;;;;;;;;10.31;26.82;99443.13;4498345;31;34625;-82
2022/03/06 09:35:05;;;;;;;;;;;;;;;9.47;26.88;99447.50;4499152;31;34747;-82
2022/03/06 09:37:35;;;;;;;;;;;;;;;9.12;28.73;99444.09;4498902;31;34231;-81
2022/03/06 09:40:03;;;;;;;;;;;;;;;8.77;28.99;99444.13;4499096;31;34675;-84
2022/03/06 09:42:30;;;;;;;;;;;;;;;8.61;29.25;99447.19;4499165;31;34096;-81
2022/03/06 09:45:00;;;;;;;;;;;;;;;9.13;28.75;99448.44;4495489;31;33962;-81
2022/03/06 09:47:27;;;;;;;;;;;;;;;9.63;28.54;99437.47;4490535;31;34286;-83
2022/03/06 09:49:54;;;;;;;;;;;;;;;10.40;26.93;99432.06;4498567;31;34198;-79
2022/03/06 09:52:21;;;;;;;;;;;;;;;10.96;26.56;99437.31;4498771;31;33136;-81
2022/03/06 09:54:49;;;;;;;;;;;;;;;10.66;26.94;99428.19;4499125;31;33668;-84
2022/03/06 09:57:19;;;;;;;;;;;;;;;9.34;27.74;99436.81;4498983;31;33384;-80
2022/03/06 09:59:47;;;;;;;;;;;;;;;9.42;28.02;99428.38;4498521;31;34329;-82
2022/03/06 10:02:15;;;;;;;;;;;;;;;8.80;28.78;99432.13;4499188;31;34316;-82
2022/03/06 10:04:44;;;;;;;;;;;;;;;9.25;29.20;99429.75;4496562;31;33841;-83
2022/03/06 10:07:12;;;;;;;;;;;;;;;9.17;28.81;99436.47;4491015;31;33429;-80
2022/03/06 10:09:43;;;;;;;;;;;;;;;8.75;29.47;99432.00;4497721;31;33954;-83
2022/03/06 10:12:23;;;;;;;;;;;;;;;9.54;28.34;99420.00;4498824;31;34358;-82
2022/03/06 10:14:52;;;;;;;;;;;;;;;9.06;28.71;99432.75;4484991;31;34870;-81
2022/03/06 10:17:20;;;;;;;;;;;;;;;9.17;28.86;99416.63;4498723;31;33843;-81
2022/03/06 10:19:48;;;;;;;;;;;;;;;10.25;27.82;99419.69;4486185;31;34258;-82
2022/03/06 10:22:15;;;;;;;;;;;;;;;9.97;27.82;99415.69;4496540;31;35149;-82
2022/03/06 10:24:49;;;;;;;;;;;;;;;10.52;27.83;99423.63;4497812;31;33541;-83
2022/03/06 10:27:17;;;;;;;;;;;;;;;10.78;26.97;99419.72;4489032;31;33807;-80
2022/03/06 10:29:44;;;;;;;;;;;;;;;10.31;26.62;99430.19;4496599;31;32896;-81
2022/03/06 10:32:11;;;;;;;;;;;;;;;9.82;28.80;99410.22;4493070;31;34384;-82
2022/03/06 10:34:39;;;;;;;;;;;;;;;11.26;26.30;99410.06;4489787;31;34107;-82
2022/03/06 10:37:07;;;;;;;;;;;;;;;10.86;26.27;99409.47;4497687;31;33073;-82
2022/03/06 10:39:44;;;;;;;;;;;;;;;11.53;25.73;99394.84;4490332;31;35276;-80
2022/03/06 10:42:11;;;;;;;;;;;;;;;10.78;26.69;99395.53;4495012;31;33952;-84
2022/03/06 10:44:42;;;;;;;;;;;;;;;10.85;26.28;99393.03;4495420;31;33842;-80
2022/03/06 10:47:13;;;;;;;;;;;;;;;10.43;26.69;99388.06;4494056;31;33456;-81
2022/03/06 10:49:40;;;;;;;;;;;;;;;9.75;28.38;99391.97;4497604;31;33795;-81
2022/03/06 10:52:14;;;;;;;;;;;;;;;10.98;26.30;99394.09;4499036;31;35335;-81
2022/03/06 10:54:49;;;;;;;;;;;;;;;10.52;26.65;99390.78;4497990;31;32073;-81
2022/03/06 10:57:16;;;;;;;;;;;;;;;10.47;26.98;99384.66;4495998;31;34734;-81
2022/03/06 10:59:44;;;;;;;;;;;;;;;10.61;27.43;99383.19;4498548;31;34932;-80
2022/03/06 11:02:11;;;;;;;;;;;;;;;11.50;25.72;99368.84;4497544;31;35159;-82
2022/03/06 11:04:38;;;;;;;;;;;;;;;10.67;26.31;99374.59;4495288;31;34297;-81
2022/03/06 11:07:06;;;;;;;;;;;;;;;11.98;25.68;99362.50;4497657;31;33587;-81
2022/03/06 11:09:34;;;;;;;;;;;;;;;12.70;23.89;99346.66;4497924;31;33983;-84
2022/03/06 11:12:01;;;;;;;;;;;;;;;12.38;24.19;99355.06;4492585;31;33694;-81
2022/03/06 11:14:29;;;;;;;;;;;;;;;12.18;24.54;99345.34;4492819;31;33320;-83
2022/03/06 11:16:56;;;;;;;;;;;;;;;12.04;25.43;99333.97;4493465;31;33591;-81
2022/03/06 11:19:25;;;;;;;;;;;;;;;12.18;24.87;99334.97;4497624;31;34726;-82
2022/03/06 11:22:14;;;;;;;;;;;;;;;11.98;25.32;99339.13;4494676;31;35187;-85
2022/03/06 11:24:48;;;;;;;;;;;;;;;13.18;23.61;99325.22;4497103;31;35199;-83
2022/03/06 11:27:35;;;;;;;;;;;;;;;13.05;23.56;99320.84;4484919;31;33161;-82
2022/03/06 11:30:28;;;;;;;;;;;;;;;12.50;24.02;99328.28;4497893;31;33863;-83
2022/03/06 11:33:02;;;;;;;;;;;;;;;12.99;23.41;99318.19;4490607;31;34360;-83
2022/03/06 11:35:31;;;;;;;;;;;;;;;12.91;24.22;99318.16;4497074;31;34871;-82
2022/03/06 11:37:58;;;;;;;;;;;;;;;12.95;23.66;99314.69;4497530;31;33389;-82
2022/03/06 11:40:43;;;;;;;;;;;;;;;12.80;23.61;99309.41;4498054;31;33835;-80
2022/03/06 11:43:12;;;;;;;;;;;;;;;12.37;23.92;99324.72;4497979;31;34947;-82
2022/03/06 11:45:46;;;;;;;;;;;;;;;11.65;25.55;99311.88;4497886;31;33493;-82
2022/03/06 11:48:29;;;;;;;;;;;;;;;13.49;23.31;99304.59;4497384;31;33313;-85
2022/03/06 11:51:14;;;;;;;;;;;;;;;11.96;24.51;99301.84;4491155;31;34062;-81
2022/03/06 11:53:45;;;;;;;;;;;;;;;11.95;25.12;99314.84;4497850;31;35435;-79
2022/03/06 11:56:49;;;;;;;;;;;;;;;12.84;23.70;99303.38;4498015;31;33925;-80
2022/03/06 11:59:19;;;;;;;;;;;;;;;13.05;24.10;99295.69;4448908;32;33386;-82
2022/03/06 12:01:48;;;;;;;;;;;;;;;13.52;23.49;99292.41;4481750;31;34824;-79
2022/03/06 12:04:21;;;;;;;;;;;;;;;12.97;23.12;99286.97;4492810;31;34049;-82
2022/03/06 12:06:50;;;;;;;;;;;;;;;13.52;23.49;99289.81;4497099;31;34330;-80
2022/03/06 12:09:19;;;;;;;;;;;;;;;11.96;24.24;99290.59;4495237;31;34120;-80
2022/03/06 12:11:47;;;;;;;;;;;;;;;12.60;24.56;99286.75;4498058;31;34094;-81
2022/03/06 12:14:18;;;;;;;;;;;;;;;12.19;24.15;99291.66;4497183;31;34525;-80
2022/03/06 12:17:03;;;;;;;;;;;;;;;11.85;24.57;99285.28;4497628;31;34382;-79
2022/03/06 12:19:31;;;;;;;;;;;;;;;11.35;25.06;99283.00;4497988;31;34343;-80
2022/03/06 12:22:21;;;;;;;;;;;;;;;11.17;25.57;99274.16;4496640;31;34024;-80
2022/03/06 12:24:49;;;;;;;;;;;;;;;12.57;24.13;99278.91;4497730;31;35206;-83
2022/03/06 12:27:18;;;;;;;;;;;;;;;12.97;23.72;99276.56;4498181;31;34183;-80
2022/03/06 12:29:45;;;;;;;;;;;;;;;12.95;23.19;99275.66;4481506;31;33441;-81
2022/03/06 12:32:33;;;;;;;;;;;;;;;12.59;23.54;99273.75;4499927;31;34909;-81
2022/03/06 12:35:08;;;;;;;;;;;;;;;12.06;23.82;99277.69;4499423;31;32631;-83
2022/03/06 12:37:36;;;;;;;;;;;;;;;12.37;24.08;99267.53;4498576;31;34277;-81
2022/03/06 12:40:05;;;;;;;;;;;;;;;13.60;23.49;99259.47;4494161;31;34192;-82
2022/03/06 12:42:33;;;;;;;;;;;;;;;13.71;24.04;99255.97;4485234;31;34296;-82
2022/03/06 12:45:06;;;;;;;;;;;;;;;14.26;23.17;99253.41;4491665;31;34177;-80
2022/03/06 12:47:34;;;;;;;;;;;;;;;14.34;21.70;99246.44;4499298;31;34014;-81
2022/03/06 12:50:01;;;;;;;;;;;;;;;13.59;22.75;99244.69;4498815;31;33147;-81
2022/03/06 12:52:28;;;;;;;;;;;;;;;12.04;24.38;99256.00;4498809;31;33862;-82
2022/03/06 12:55:03;;;;;;;;;;;;;;;13.36;23.03;99243.75;4498855;31;34160;-83
2022/03/06 12:57:31;;;;;;;;;;;;;;;13.50;22.27;99244.66;4467323;31;781617;-82
2022/03/06 12:59:58;;;;;;;;;;;;;;;13.75;22.06;99243.00;4501805;31;34908;-82